createdAt,value
2018-02-21T21:32:58.452Z,52.36
2018-02-21T21:35:24.740Z,52.37
2018-02-21T21:37:50.976Z,52.10
2018-02-21T21:40:17.265Z,52.09
2018-02-21T21:42:43.537Z,52.27
2018-02-21T21:45:09.796Z,52.27
2018-02-21T21:47:36.069Z,52.14
2018-02-21T21:50:02.368Z,52.17
2018-02-21T21:52:28.580Z,52.25
2018-02-21T21:54:54.874Z,52.36
2018-02-21T21:57:21.703Z,52.24
2018-02-21T21:59:47.952Z,52.20
2018-02-21T22:02:14.227Z,52.23
2018-02-21T22:04:40.459Z,52.42
2018-02-21T22:07:06.708Z,52.42
2018-02-21T22:09:32.977Z,52.53
2018-02-21T22:11:59.597Z,52.75
2018-02-21T22:14:25.912Z,52.78
2018-02-21T22:16:52.246Z,52.65
2018-02-21T22:19:18.667Z,52.62
2018-02-21T22:21:44.957Z,52.52
2018-02-21T22:24:12.155Z,52.52
2018-02-21T22:26:38.417Z,52.88
2018-02-21T22:29:04.802Z,52.85
2018-02-21T22:31:31.140Z,52.90
2018-02-21T22:33:57.392Z,53.19
2018-02-21T22:36:24.074Z,52.90
2018-02-21T22:38:50.511Z,53.34
2018-02-21T22:41:16.904Z,53.35
2018-02-21T22:43:43.225Z,53.42
2018-02-21T22:46:09.515Z,53.52
2018-02-21T22:48:36.093Z,53.61
2018-02-21T22:51:02.328Z,53.66
2018-02-21T22:53:28.782Z,53.81
2018-02-21T22:55:55.036Z,54.00
2018-02-21T22:58:21.268Z,53.93
2018-02-21T23:00:47.938Z,54.15
2018-02-21T23:03:14.230Z,54.02
2018-02-21T23:05:40.580Z,54.21
2018-02-21T23:08:07.023Z,54.50
2018-02-21T23:10:33.267Z,54.62
2018-02-21T23:12:59.866Z,54.66
2018-02-21T23:15:26.194Z,54.75
2018-02-21T23:17:52.469Z,54.79
2018-02-21T23:20:18.812Z,54.63
2018-02-21T23:22:45.092Z,54.74
2018-02-21T23:25:11.332Z,54.77
2018-02-21T23:27:37.559Z,55.03
2018-02-21T23:30:03.879Z,55.17
2018-02-21T23:32:30.107Z,55.25
2018-02-21T23:34:56.349Z,55.41
2018-02-21T23:37:22.869Z,55.38
2018-02-21T23:39:49.155Z,55.42
2018-02-21T23:42:15.400Z,55.66
2018-02-21T23:44:41.656Z,55.75
2018-02-21T23:47:07.896Z,55.86
2018-02-21T23:49:34.274Z,55.86
2018-02-21T23:52:00.547Z,55.99
2018-02-21T23:54:26.800Z,55.97
2018-02-21T23:56:53.033Z,55.96
2018-02-21T23:59:19.340Z,56.07
